x

Luke Offshore Test Platform - 64 Nm South Of Dauphin Island, Al (42040) Wave Buoy

6:50pm - Fri 28th Aug 2015 All times are CDT. -5 hours from GMT.

  • Sig Wave height 0.7ft
  • Average Period 3s
  • Wind
    7mph, 9mph gusts
  • Sea Temp 87°f
  • Air Temp 82°f
  • Sea Pressure 1015.2mb
  • Luke Offshore Test Platform - 64 Nm South Of Dauphin Island, Al
  • Luke Offshore Test Platform - 64 Nm South Of Dauphin Island, Al

More Historic Weather Station data

Upgrade to MSW Pro to gain access to the past 30 days of data for over 8000 Wavebouys and Weather Stations around the globe.

Join Pro

Comparision Forecast

View Surf forecast
   
Fri 08/28 6:50pm 0.7ft  -  3s 7 9 mph 1015.2mb 87f 82f
5:50pm 0.7ft  -  3s 7 9 mph 1015.1mb 87f 82f
4:50pm 0.7ft  -  3s 7 9 mph 1015mb 88f 82f
3:50pm 0.7ft  -  4s 4 9 mph 1015.3mb 88f 82f
2:50pm 0.7ft  -  4s 7 9 mph 1015.7mb 88f 82f
1:50pm 0.7ft  -  3s 7 9 mph 1016mb 87f 82f
12:50pm 0.7ft  -  3s 7 9 mph 1016.4mb 87f 82f
11:50am 0.7ft  -  3s 9 11 mph 1016.7mb 86f 81f
10:50am 0.7ft  -  3s 11 16 mph 1016.8mb 86f 81f
9:50am 0.7ft  -  3s 11 13 mph 1016.5mb 85f 80f
8:50am 0.7ft  -  3s 11 13 mph 1016mb 85f 80f
7:50am 0.7ft  -  3s 9 11 mph 1015.7mb 84f 80f
6:50am 0.3ft  -  3s 7 9 mph 1014.7mb 84f 80f
5:50am 0.7ft  -  3s 9 11 mph 1014mb 85f 80f
4:50am 0.3ft  -  3s 9 11 mph 1013.8mb 85f 80f
3:50am 0.7ft  -  3s 9 11 mph 1013.6mb 85f 80f
2:50am 0.7ft  -  3s 7 11 mph 1013.9mb 85f 80f
1:50am 0.7ft  -  3s 7 9 mph 1014.3mb 85f 80f
12:50am 0.7ft  -  3s 7
mph
1014.6mb 85f 81f
Thu 08/27 11:50pm 0.7ft  -  3s 7 9 mph 1014.7mb 85f 81f
10:50pm 0.7ft  -  3s 7 9 mph 1015.2mb 85f 81f
9:50pm 1ft 3s 3s 9 11 mph 1015.4mb 85f 81f
8:50pm 1ft 3s 3s 7 9 mph 1014.9mb 86f 81f
7:50pm 1.3ft 4s 4s 4 7 mph 1014.5mb 86f 80f
6:50pm 1.3ft 4s 4s 7 9 mph 1014.2mb 87f 80f
5:50pm 1.6ft 4s 4s 7 11 mph 1014.1mb 87f 80f
4:50pm 1.6ft 4s 4s 9 11 mph 1014.1mb 87f 80f
3:50pm 1.6ft 4s 4s 4 7 mph 1014.3mb 87f 80f
2:50pm 1.6ft 4s 4s 7 9 mph 1014.6mb 87f 80f
1:50pm 1.6ft 4s 4s 7 11 mph 1015mb 86f 79f
12:50pm 1.6ft 4s 4s 9 13 mph 1015.5mb 86f 79f
11:50am 2ft 4s 4s 11 13 mph 1016mb 86f 79f
10:50am 1.6ft 4s 4s 11 16 mph 1016mb 86f 79f
9:50am 2ft 4s 4s 13 16 mph 1015.4mb 85f 79f
8:50am 2ft 5s 4s 18 22 mph 1014.9mb 85f 79f
7:50am 2ft 4s 4s 11 16 mph 1014.6mb 85f 80f
6:50am 2.5ft 4s 4s 9 11 mph 1014.6mb 85f 80f
5:50am 2.5ft 5s 4s 9 11 mph 1014.4mb 85f 80f
4:50am 2.5ft 5s 4s 7 11 mph 1014.3mb 85f 80f
3:50am 2.5ft 5s 4s 4 9 mph 1014.4mb 85f 80f
2:50am 2.5ft 4s 4s 9 11 mph 1014.6mb 85f 80f
1:50am 2.5ft 4s 4s 16 18 mph 1015.1mb 85f 80f
12:50am 2.5ft 4s 3s 18 22 mph 1015.4mb 85f 81f
Wed 08/26 11:50pm 2.5ft 3s 3s 20 22 mph 1015.5mb 85f 81f
10:50pm 2ft 3s 3s 16 20 mph 1015.6mb 85f 82f
9:50pm 1.6ft 3s 3s 13 18 mph 1015.4mb 86f 82f
8:50pm 1.6ft 4s 3s 13 16 mph 1014.9mb 86f 81f
7:50pm 1.6ft 4s 4s 13 20 mph 1014.5mb 86f 80f
6:50pm 1.6ft 4s 4s 13 16 mph 1014.6mb 87f 80f
5:50pm 2ft 4s 4s 9 16 mph 1015mb 87f 80f
4:50pm 2ft 4s 4s 9 13 mph 1015.4mb 87f 80f
3:50pm 2ft 5s 4s 9 13 mph 1015.8mb 87f 80f
2:50pm 2.5ft 5s 4s 11 16 mph 1016.2mb 87f 80f
1:50pm 2.5ft 5s 4s 11 16 mph 1016.8mb 87f 80f
12:50pm 2.5ft 5s 4s 11 16 mph 1017.2mb 87f 79f
11:50am 2.5ft 5s 4s 13 16 mph 1017.5mb 87f 80f
10:50am 3ft 5s 4s 13 18 mph 1017.2mb 86f 80f
9:50am 3ft 5s 4s 13 18 mph 1016.9mb 86f 80f
8:50am 3ft 5s 4s 13 16 mph 1016.6mb 85f 80f
7:50am 3.5ft 5s 4s 11 16 mph 1016mb 85f 80f
6:50am 3.5ft 5s 4s 11 16 mph 1015.6mb 85f 80f
5:50am 3.5ft 6s 4s 13 18 mph 1015.2mb 85f 80f
4:50am 3.5ft 5s 4s 13 20 mph 1014.7mb 86f 81f
3:50am 3.5ft 5s 4s 18 20 mph 1014.5mb 86f 81f
2:50am 3.5ft 5s 4s 18 20 mph 1014.4mb 86f 81f
1:50am 4ft 5s 4s 16 20 mph 1014.6mb 86f 82f
12:50am 3.5ft 5s 4s 18 22 mph 1014.9mb 86f 83f
Tue 08/25 11:50pm 3.5ft 5s 4s 20 22 mph 1015.5mb 86f 83f
10:50pm 3ft 4s 4s 18 22 mph 1015.2mb 86f 85f
9:50pm 2.5ft 4s 4s 18 20 mph 1014.9mb 87f 85f
8:50pm 2.5ft 4s 4s 18 22 mph 1014.6mb 87f 85f
7:50pm 2.5ft 4s 4s 18 22 mph 1013.7mb 87f 85f
6:50pm 2ft 4s 4s 18 20 mph 1013.5mb 87f 84f
5:50pm 2.5ft 4s 4s 16 18 mph 1013.8mb 88f 84f
4:50pm 2.5ft 4s 4s 16 20 mph 1013.8mb 88f 83f
3:50pm 2.5ft 4s 4s 16 18 mph 1014.2mb 88f 83f
2:50pm 2.5ft 4s 4s 16 18 mph 1014.6mb 88f 83f
1:50pm 2.5ft 4s 4s 13 16 mph 1015.2mb 88f 83f
12:50pm 2.5ft 5s 4s 16 18 mph 1015.4mb 88f 83f
11:50am 2.5ft 5s 4s 16 18 mph 1015.9mb 88f 82f
10:50am 3ft 5s 4s 13 16 mph 1016.1mb 87f 83f
9:50am 3ft 5s 4s 13 16 mph 1016mb 87f 84f
8:50am 3ft 5s 4s 13 16 mph 1015.7mb 87f 84f
7:50am 3ft 5s 4s 16 18 mph 1015.3mb 87f 83f
6:50am 3ft 5s 4s 16 18 mph 1014.8mb 87f 84f
5:50am 3ft 4s 4s 16 18 mph 1014.1mb 87f 85f
4:50am 2.5ft 5s 4s 16 20 mph 1013.7mb 87f 85f
3:50am 2ft 4s 4s 18 20 mph 1013.8mb 87f 86f
2:50am 1.6ft 4s 3s 16 18 mph 1014mb 87f 86f
1:50am 1.3ft 3s 3s 18 20 mph 1013.9mb 88f 86f